sensor_id;sensor_type;location;lat;lon;timestamp;temperature;humidity
7218;DHT22;3650;53.580;10.094;2023-04-24T00:01:13;15.50;83.50
7218;DHT22;3650;53.580;10.094;2023-04-24T00:03:40;15.50;83.70
7218;DHT22;3650;53.580;10.094;2023-04-24T00:06:08;15.50;83.80
7218;DHT22;3650;53.580;10.094;2023-04-24T00:08:35;15.50;84.10
7218;DHT22;3650;53.580;10.094;2023-04-24T00:11:02;15.60;84.30
7218;DHT22;3650;53.580;10.094;2023-04-24T00:13:29;15.60;84.10
7218;DHT22;3650;53.580;10.094;2023-04-24T00:15:56;15.60;84.50
7218;DHT22;3650;53.580;10.094;2023-04-24T00:18:23;15.50;84.50
7218;DHT22;3650;53.580;10.094;2023-04-24T00:20:50;15.50;84.20
7218;DHT22;3650;53.580;10.094;2023-04-24T00:23:18;15.50;84.00
7218;DHT22;3650;53.580;10.094;2023-04-24T00:25:44;15.50;84.20
7218;DHT22;3650;53.580;10.094;2023-04-24T00:28:11;15.50;84.00
7218;DHT22;3650;53.580;10.094;2023-04-24T00:30:38;15.50;83.90
7218;DHT22;3650;53.580;10.094;2023-04-24T00:33:05;15.50;84.50
7218;DHT22;3650;53.580;10.094;2023-04-24T00:35:32;15.50;84.60
7218;DHT22;3650;53.580;10.094;2023-04-24T00:37:58;15.50;84.70
7218;DHT22;3650;53.580;10.094;2023-04-24T00:40:27;15.50;84.80
7218;DHT22;3650;53.580;10.094;2023-04-24T00:42:54;15.40;84.70
7218;DHT22;3650;53.580;10.094;2023-04-24T00:45:21;15.50;84.80
7218;DHT22;3650;53.580;10.094;2023-04-24T00:47:48;15.50;84.80
7218;DHT22;3650;53.580;10.094;2023-04-24T00:50:15;15.40;84.50
7218;DHT22;3650;53.580;10.094;2023-04-24T00:52:42;15.50;84.60
7218;DHT22;3650;53.580;10.094;2023-04-24T00:55:09;15.40;84.50
7218;DHT22;3650;53.580;10.094;2023-04-24T00:57:38;15.40;84.30
7218;DHT22;3650;53.580;10.094;2023-04-24T01:00:06;15.40;84.20
7218;DHT22;3650;53.580;10.094;2023-04-24T01:02:37;15.40;84.00
7218;DHT22;3650;53.580;10.094;2023-04-24T01:05:09;15.40;83.90
7218;DHT22;3650;53.580;10.094;2023-04-24T01:07:38;15.30;84.00
7218;DHT22;3650;53.580;10.094;2023-04-24T01:10:05;15.40;83.90
7218;DHT22;3650;53.580;10.094;2023-04-24T01:12:33;15.40;83.80
7218;DHT22;3650;53.580;10.094;2023-04-24T01:15:03;15.30;83.70
7218;DHT22;3650;53.580;10.094;2023-04-24T01:17:30;15.30;83.70
7218;DHT22;3650;53.580;10.094;2023-04-24T01:19:58;15.30;83.50
7218;DHT22;3650;53.580;10.094;2023-04-24T01:22:26;15.30;84.00
7218;DHT22;3650;53.580;10.094;2023-04-24T01:24:53;15.30;83.90
7218;DHT22;3650;53.580;10.094;2023-04-24T01:27:20;15.30;83.80
7218;DHT22;3650;53.580;10.094;2023-04-24T01:29:47;15.20;82.80
7218;DHT22;3650;53.580;10.094;2023-04-24T01:32:15;15.20;83.70
7218;DHT22;3650;53.580;10.094;2023-04-24T01:34:42;15.20;83.80
7218;DHT22;3650;53.580;10.094;2023-04-24T01:37:09;15.20;83.80
7218;DHT22;3650;53.580;10.094;2023-04-24T01:39:37;15.20;83.90
7218;DHT22;3650;53.580;10.094;2023-04-24T01:42:05;15.20;83.90
7218;DHT22;3650;53.580;10.094;2023-04-24T01:44:33;15.20;83.80
7218;DHT22;3650;53.580;10.094;2023-04-24T01:47:00;15.20;84.90
7218;DHT22;3650;53.580;10.094;2023-04-24T01:49:27;15.20;83.80
7218;DHT22;3650;53.580;10.094;2023-04-24T01:51:54;15.20;83.90
7218;DHT22;3650;53.580;10.094;2023-04-24T01:54:21;15.20;83.80
7218;DHT22;3650;53.580;10.094;2023-04-24T01:56:50;15.10;83.40
7218;DHT22;3650;53.580;10.094;2023-04-24T01:59:17;15.10;83.00
7218;DHT22;3650;53.580;10.094;2023-04-24T02:01:46;15.10;83.00
7218;DHT22;3650;53.580;10.094;2023-04-24T02:04:13;15.10;82.80
7218;DHT22;3650;53.580;10.094;2023-04-24T02:06:40;15.10;82.20
7218;DHT22;3650;53.580;10.094;2023-04-24T02:09:07;15.10;82.50
7218;DHT22;3650;53.580;10.094;2023-04-24T02:11:34;15.10;82.00
7218;DHT22;3650;53.580;10.094;2023-04-24T02:14:02;15.10;81.50
7218;DHT22;3650;53.580;10.094;2023-04-24T02:16:29;15.00;81.00
7218;DHT22;3650;53.580;10.094;2023-04-24T02:18:58;15.00;80.70
7218;DHT22;3650;53.580;10.094;2023-04-24T02:21:25;15.00;80.80
7218;DHT22;3650;53.580;10.094;2023-04-24T02:23:52;15.00;80.90
7218;DHT22;3650;53.580;10.094;2023-04-24T02:26:19;15.00;81.10
7218;DHT22;3650;53.580;10.094;2023-04-24T02:28:46;15.00;81.00
7218;DHT22;3650;53.580;10.094;2023-04-24T02:31:14;15.00;81.00
7218;DHT22;3650;53.580;10.094;2023-04-24T02:33:41;15.00;80.80
7218;DHT22;3650;53.580;10.094;2023-04-24T02:36:08;15.00;80.10
7218;DHT22;3650;53.580;10.094;2023-04-24T02:38:35;14.90;80.10
7218;DHT22;3650;53.580;10.094;2023-04-24T02:41:01;14.90;80.20
7218;DHT22;3650;53.580;10.094;2023-04-24T02:43:31;14.90;80.10
7218;DHT22;3650;53.580;10.094;2023-04-24T02:45:58;14.90;80.40
7218;DHT22;3650;53.580;10.094;2023-04-24T02:48:26;14.90;80.50
7218;DHT22;3650;53.580;10.094;2023-04-24T02:50:53;14.80;79.90
7218;DHT22;3650;53.580;10.094;2023-04-24T02:53:20;14.80;80.10
7218;DHT22;3650;53.580;10.094;2023-04-24T02:55:46;14.80;80.30
7218;DHT22;3650;53.580;10.094;2023-04-24T02:58:13;14.80;80.30
7218;DHT22;3650;53.580;10.094;2023-04-24T03:00:41;14.80;80.00
7218;DHT22;3650;53.580;10.094;2023-04-24T03:03:08;14.70;79.40
7218;DHT22;3650;53.580;10.094;2023-04-24T03:05:37;14.70;79.40
7218;DHT22;3650;53.580;10.094;2023-04-24T03:08:03;14.70;79.10
7218;DHT22;3650;53.580;10.094;2023-04-24T03:10:30;14.70;78.90
7218;DHT22;3650;53.580;10.094;2023-04-24T03:12:57;14.70;78.90
7218;DHT22;3650;53.580;10.094;2023-04-24T03:15:24;14.60;79.00
7218;DHT22;3650;53.580;10.094;2023-04-24T03:17:51;14.60;78.50
7218;DHT22;3650;53.580;10.094;2023-04-24T03:20:18;14.60;78.50
7218;DHT22;3650;53.580;10.094;2023-04-24T03:22:46;14.60;78.20
7218;DHT22;3650;53.580;10.094;2023-04-24T03:25:12;14.60;77.90
7218;DHT22;3650;53.580;10.094;2023-04-24T03:27:39;14.60;77.70
7218;DHT22;3650;53.580;10.094;2023-04-24T03:30:07;14.50;77.60
7218;DHT22;3650;53.580;10.094;2023-04-24T03:32:34;14.50;77.30
7218;DHT22;3650;53.580;10.094;2023-04-24T03:35:01;14.50;77.30
7218;DHT22;3650;53.580;10.094;2023-04-24T03:37:29;14.50;76.30
7218;DHT22;3650;53.580;10.094;2023-04-24T03:39:57;14.40;76.10
7218;DHT22;3650;53.580;10.094;2023-04-24T03:42:24;14.50;75.60
7218;DHT22;3650;53.580;10.094;2023-04-24T03:44:50;14.40;74.80
7218;DHT22;3650;53.580;10.094;2023-04-24T03:47:17;14.50;75.00
7218;DHT22;3650;53.580;10.094;2023-04-24T03:49:44;14.40;74.80
7218;DHT22;3650;53.580;10.094;2023-04-24T03:52:11;14.40;74.70
7218;DHT22;3650;53.580;10.094;2023-04-24T03:54:38;14.40;74.00
7218;DHT22;3650;53.580;10.094;2023-04-24T03:57:06;14.40;73.70
7218;DHT22;3650;53.580;10.094;2023-04-24T03:59:32;14.40;73.30
7218;DHT22;3650;53.580;10.094;2023-04-24T04:01:59;14.40;72.50
7218;DHT22;3650;53.580;10.094;2023-04-24T04:04:26;14.40;72.50
7218;DHT22;3650;53.580;10.094;2023-04-24T04:06:53;14.40;71.80
7218;DHT22;3650;53.580;10.094;2023-04-24T04:09:20;14.40;71.70
7218;DHT22;3650;53.580;10.094;2023-04-24T04:11:46;14.40;71.30
7218;DHT22;3650;53.580;10.094;2023-04-24T04:14:15;14.30;70.90
7218;DHT22;3650;53.580;10.094;2023-04-24T04:16:41;14.30;70.50
7218;DHT22;3650;53.580;10.094;2023-04-24T04:19:08;14.30;69.10
7218;DHT22;3650;53.580;10.094;2023-04-24T04:21:35;14.30;69.20
7218;DHT22;3650;53.580;10.094;2023-04-24T04:24:02;14.30;68.60
7218;DHT22;3650;53.580;10.094;2023-04-24T04:26:31;14.30;68.60
7218;DHT22;3650;53.580;10.094;2023-04-24T04:28:58;14.20;68.00
7218;DHT22;3650;53.580;10.094;2023-04-24T04:31:27;14.20;67.50
7218;DHT22;3650;53.580;10.094;2023-04-24T04:33:54;14.20;66.80
7218;DHT22;3650;53.580;10.094;2023-04-24T04:36:20;14.20;67.40
7218;DHT22;3650;53.580;10.094;2023-04-24T04:38:47;14.10;67.50
7218;DHT22;3650;53.580;10.094;2023-04-24T04:41:14;14.10;66.60
7218;DHT22;3650;53.580;10.094;2023-04-24T04:43:42;14.10;65.30
7218;DHT22;3650;53.580;10.094;2023-04-24T04:46:09;14.10;66.20
7218;DHT22;3650;53.580;10.094;2023-04-24T04:48:37;14.10;65.40
7218;DHT22;3650;53.580;10.094;2023-04-24T04:51:05;14.10;65.30
7218;DHT22;3650;53.580;10.094;2023-04-24T04:53:31;14.10;64.90
7218;DHT22;3650;53.580;10.094;2023-04-24T04:55:58;14.00;63.70
7218;DHT22;3650;53.580;10.094;2023-04-24T04:58:26;14.00;63.40
7218;DHT22;3650;53.580;10.094;2023-04-24T05:00:52;14.00;63.70
7218;DHT22;3650;53.580;10.094;2023-04-24T05:03:19;14.10;63.10
7218;DHT22;3650;53.580;10.094;2023-04-24T05:05:47;14.10;62.50
7218;DHT22;3650;53.580;10.094;2023-04-24T05:08:14;14.10;61.70
7218;DHT22;3650;53.580;10.094;2023-04-24T05:10:41;14.10;60.80
7218;DHT22;3650;53.580;10.094;2023-04-24T05:13:08;14.10;60.90
7218;DHT22;3650;53.580;10.094;2023-04-24T05:15:35;14.10;60.60
7218;DHT22;3650;53.580;10.094;2023-04-24T05:18:02;14.10;60.10
7218;DHT22;3650;53.580;10.094;2023-04-24T05:20:29;14.10;59.90
7218;DHT22;3650;53.580;10.094;2023-04-24T05:22:57;14.20;60.00
7218;DHT22;3650;53.580;10.094;2023-04-24T05:25:24;14.20;60.30
7218;DHT22;3650;53.580;10.094;2023-04-24T05:27:50;14.20;59.60
7218;DHT22;3650;53.580;10.094;2023-04-24T05:30:18;14.20;58.90
7218;DHT22;3650;53.580;10.094;2023-04-24T05:32:45;14.20;59.40
7218;DHT22;3650;53.580;10.094;2023-04-24T05:35:12;14.20;58.70
7218;DHT22;3650;53.580;10.094;2023-04-24T05:37:39;14.20;58.30
7218;DHT22;3650;53.580;10.094;2023-04-24T05:40:08;14.20;58.80
7218;DHT22;3650;53.580;10.094;2023-04-24T05:42:35;14.20;58.50
7218;DHT22;3650;53.580;10.094;2023-04-24T05:45:03;14.20;58.00
7218;DHT22;3650;53.580;10.094;2023-04-24T05:47:30;14.20;57.60
7218;DHT22;3650;53.580;10.094;2023-04-24T05:49:57;14.20;57.30
7218;DHT22;3650;53.580;10.094;2023-04-24T05:52:23;14.30;57.40
7218;DHT22;3650;53.580;10.094;2023-04-24T05:54:50;14.30;57.10
7218;DHT22;3650;53.580;10.094;2023-04-24T05:57:19;14.30;56.20
7218;DHT22;3650;53.580;10.094;2023-04-24T05:59:45;14.30;56.40
7218;DHT22;3650;53.580;10.094;2023-04-24T06:02:12;14.30;56.30
7218;DHT22;3650;53.580;10.094;2023-04-24T06:04:39;14.30;56.20
7218;DHT22;3650;53.580;10.094;2023-04-24T06:07:07;14.30;56.10
7218;DHT22;3650;53.580;10.094;2023-04-24T06:09:33;14.30;56.30
7218;DHT22;3650;53.580;10.094;2023-04-24T06:12:00;14.30;56.40
7218;DHT22;3650;53.580;10.094;2023-04-24T06:14:29;14.30;56.10
7218;DHT22;3650;53.580;10.094;2023-04-24T06:16:56;14.40;56.00
7218;DHT22;3650;53.580;10.094;2023-04-24T06:19:22;14.40;55.80
7218;DHT22;3650;53.580;10.094;2023-04-24T06:21:49;14.40;55.80
7218;DHT22;3650;53.580;10.094;2023-04-24T06:24:16;14.40;55.10
7218;DHT22;3650;53.580;10.094;2023-04-24T06:26:43;14.50;55.70
7218;DHT22;3650;53.580;10.094;2023-04-24T06:29:10;14.50;54.30
7218;DHT22;3650;53.580;10.094;2023-04-24T06:31:38;14.50;54.40
7218;DHT22;3650;53.580;10.094;2023-04-24T06:34:04;14.50;54.40
7218;DHT22;3650;53.580;10.094;2023-04-24T06:36:31;14.50;53.30
7218;DHT22;3650;53.580;10.094;2023-04-24T06:39:00;14.50;53.30
7218;DHT22;3650;53.580;10.094;2023-04-24T06:41:27;14.50;53.00
7218;DHT22;3650;53.580;10.094;2023-04-24T06:43:54;14.50;52.60
7218;DHT22;3650;53.580;10.094;2023-04-24T06:46:21;14.60;52.20
7218;DHT22;3650;53.580;10.094;2023-04-24T06:48:50;14.60;52.10
7218;DHT22;3650;53.580;10.094;2023-04-24T06:51:17;14.60;52.20
7218;DHT22;3650;53.580;10.094;2023-04-24T06:53:44;14.60;52.10
7218;DHT22;3650;53.580;10.094;2023-04-24T06:56:11;14.60;52.30
7218;DHT22;3650;53.580;10.094;2023-04-24T06:58:38;14.70;52.00
7218;DHT22;3650;53.580;10.094;2023-04-24T07:01:04;14.70;51.50
7218;DHT22;3650;53.580;10.094;2023-04-24T07:03:31;14.70;51.60
7218;DHT22;3650;53.580;10.094;2023-04-24T07:05:59;14.70;52.60
7218;DHT22;3650;53.580;10.094;2023-04-24T07:08:26;14.80;52.20
7218;DHT22;3650;53.580;10.094;2023-04-24T07:10:53;14.80;52.50
7218;DHT22;3650;53.580;10.094;2023-04-24T07:13:21;14.80;49.90
7218;DHT22;3650;53.580;10.094;2023-04-24T07:15:48;14.90;50.80
7218;DHT22;3650;53.580;10.094;2023-04-24T07:18:16;14.90;51.70
7218;DHT22;3650;53.580;10.094;2023-04-24T07:20:43;15.00;50.80
7218;DHT22;3650;53.580;10.094;2023-04-24T07:23:11;15.00;50.30
7218;DHT22;3650;53.580;10.094;2023-04-24T07:25:38;15.00;50.10
7218;DHT22;3650;53.580;10.094;2023-04-24T07:28:05;15.10;49.70
7218;DHT22;3650;53.580;10.094;2023-04-24T07:30:32;15.10;49.40
7218;DHT22;3650;53.580;10.094;2023-04-24T07:32:59;15.20;49.10
7218;DHT22;3650;53.580;10.094;2023-04-24T07:35:26;15.20;48.20
7218;DHT22;3650;53.580;10.094;2023-04-24T07:37:53;15.20;48.60
7218;DHT22;3650;53.580;10.094;2023-04-24T07:40:22;15.20;47.30
7218;DHT22;3650;53.580;10.094;2023-04-24T07:42:49;15.30;47.10
7218;DHT22;3650;53.580;10.094;2023-04-24T07:45:16;15.30;47.30
7218;DHT22;3650;53.580;10.094;2023-04-24T07:47:43;15.30;46.90
7218;DHT22;3650;53.580;10.094;2023-04-24T07:50:11;15.30;46.70
7218;DHT22;3650;53.580;10.094;2023-04-24T07:52:38;15.30;46.00
7218;DHT22;3650;53.580;10.094;2023-04-24T07:55:06;15.30;44.70
7218;DHT22;3650;53.580;10.094;2023-04-24T07:57:34;15.30;44.50
7218;DHT22;3650;53.580;10.094;2023-04-24T08:00:01;15.30;45.70
7218;DHT22;3650;53.580;10.094;2023-04-24T08:02:28;15.40;44.20
7218;DHT22;3650;53.580;10.094;2023-04-24T08:04:55;15.40;44.60
7218;DHT22;3650;53.580;10.094;2023-04-24T08:07:23;15.30;44.30
7218;DHT22;3650;53.580;10.094;2023-04-24T08:09:50;15.30;45.00
7218;DHT22;3650;53.580;10.094;2023-04-24T08:12:16;15.40;45.00
7218;DHT22;3650;53.580;10.094;2023-04-24T08:14:44;15.40;45.00
7218;DHT22;3650;53.580;10.094;2023-04-24T08:17:11;15.50;44.60
7218;DHT22;3650;53.580;10.094;2023-04-24T08:19:40;15.40;44.70
7218;DHT22;3650;53.580;10.094;2023-04-24T08:22:08;15.50;44.70
7218;DHT22;3650;53.580;10.094;2023-04-24T08:24:35;15.50;43.90
7218;DHT22;3650;53.580;10.094;2023-04-24T08:27:03;15.50;43.50
7218;DHT22;3650;53.580;10.094;2023-04-24T08:29:29;15.50;43.10
7218;DHT22;3650;53.580;10.094;2023-04-24T08:31:57;15.50;43.00
7218;DHT22;3650;53.580;10.094;2023-04-24T08:34:24;15.50;43.10
7218;DHT22;3650;53.580;10.094;2023-04-24T08:37:04;15.40;42.80
7218;DHT22;3650;53.580;10.094;2023-04-24T08:39:31;15.40;43.20
7218;DHT22;3650;53.580;10.094;2023-04-24T08:41:59;15.40;43.00
7218;DHT22;3650;53.580;10.094;2023-04-24T08:44:31;15.40;42.60
7218;DHT22;3650;53.580;10.094;2023-04-24T08:47:00;15.40;42.80
7218;DHT22;3650;53.580;10.094;2023-04-24T08:49:29;15.30;42.20
7218;DHT22;3650;53.580;10.094;2023-04-24T08:51:56;15.30;42.80
7218;DHT22;3650;53.580;10.094;2023-04-24T08:54:25;15.40;42.90
7218;DHT22;3650;53.580;10.094;2023-04-24T08:56:54;15.40;42.80
7218;DHT22;3650;53.580;10.094;2023-04-24T08:59:28;15.30;42.30
7218;DHT22;3650;53.580;10.094;2023-04-24T09:01:55;15.30;42.40
7218;DHT22;3650;53.580;10.094;2023-04-24T09:04:24;15.40;42.60
7218;DHT22;3650;53.580;10.094;2023-04-24T09:06:52;15.40;41.20
7218;DHT22;3650;53.580;10.094;2023-04-24T09:09:21;15.30;41.00
7218;DHT22;3650;53.580;10.094;2023-04-24T09:11:49;15.30;42.30
7218;DHT22;3650;53.580;10.094;2023-04-24T09:14:17;15.40;42.70
7218;DHT22;3650;53.580;10.094;2023-04-24T09:16:43;15.40;42.00
7218;DHT22;3650;53.580;10.094;2023-04-24T09:19:10;15.40;41.10
7218;DHT22;3650;53.580;10.094;2023-04-24T09:21:38;15.50;41.30
7218;DHT22;3650;53.580;10.094;2023-04-24T09:24:08;15.40;41.60
7218;DHT22;3650;53.580;10.094;2023-04-24T09:26:43;15.40;41.10
7218;DHT22;3650;53.580;10.094;2023-04-24T09:29:14;15.50;41.20
7218;DHT22;3650;53.580;10.094;2023-04-24T09:31:42;15.50;41.30
7218;DHT22;3650;53.580;10.094;2023-04-24T09:34:09;15.50;41.30
7218;DHT22;3650;53.580;10.094;2023-04-24T09:36:39;15.40;41.00
7218;DHT22;3650;53.580;10.094;2023-04-24T09:39:07;15.40;41.10
7218;DHT22;3650;53.580;10.094;2023-04-24T09:41:43;15.40;41.20
7218;DHT22;3650;53.580;10.094;2023-04-24T09:44:12;15.40;41.10
7218;DHT22;3650;53.580;10.094;2023-04-24T09:46:41;15.40;41.10
7218;DHT22;3650;53.580;10.094;2023-04-24T09:49:09;15.40;41.40
7218;DHT22;3650;53.580;10.094;2023-04-24T09:51:38;15.40;41.10
7218;DHT22;3650;53.580;10.094;2023-04-24T09:54:13;15.40;41.20
7218;DHT22;3650;53.580;10.094;2023-04-24T09:56:43;15.40;41.20
7218;DHT22;3650;53.580;10.094;2023-04-24T09:59:11;15.30;41.00
7218;DHT22;3650;53.580;10.094;2023-04-24T10:01:38;15.40;41.10
7218;DHT22;3650;53.580;10.094;2023-04-24T10:04:15;15.40;41.10
7218;DHT22;3650;53.580;10.094;2023-04-24T10:06:44;15.40;41.10
7218;DHT22;3650;53.580;10.094;2023-04-24T10:09:12;15.50;41.30
7218;DHT22;3650;53.580;10.094;2023-04-24T10:14:09;15.40;41.20
7218;DHT22;3650;53.580;10.094;2023-04-24T10:16:37;15.30;41.00
7218;DHT22;3650;53.580;10.094;2023-04-24T10:19:04;15.40;41.10
7218;DHT22;3650;53.580;10.094;2023-04-24T10:21:32;15.40;41.10
7218;DHT22;3650;53.580;10.094;2023-04-24T10:24:01;15.40;41.20
7218;DHT22;3650;53.580;10.094;2023-04-24T10:26:29;15.40;41.10
7218;DHT22;3650;53.580;10.094;2023-04-24T10:28:57;15.30;41.50
7218;DHT22;3650;53.580;10.094;2023-04-24T10:31:25;15.40;42.30
7218;DHT22;3650;53.580;10.094;2023-04-24T10:33:53;15.40;42.20
7218;DHT22;3650;53.580;10.094;2023-04-24T10:36:22;15.40;42.00
7218;DHT22;3650;53.580;10.094;2023-04-24T10:38:53;15.40;41.60
7218;DHT22;3650;53.580;10.094;2023-04-24T10:41:25;15.40;43.30
7218;DHT22;3650;53.580;10.094;2023-04-24T10:44:05;15.40;42.00
7218;DHT22;3650;53.580;10.094;2023-04-24T10:46:32;15.40;41.80
7218;DHT22;3650;53.580;10.094;2023-04-24T10:48:59;15.30;41.60
7218;DHT22;3650;53.580;10.094;2023-04-24T10:51:45;15.30;42.00
7218;DHT22;3650;53.580;10.094;2023-04-24T10:54:25;15.40;42.10
7218;DHT22;3650;53.580;10.094;2023-04-24T10:57:28;15.20;42.70
7218;DHT22;3650;53.580;10.094;2023-04-24T11:00:26;15.30;42.80
7218;DHT22;3650;53.580;10.094;2023-04-24T11:02:53;15.20;43.10
7218;DHT22;3650;53.580;10.094;2023-04-24T11:05:21;15.20;42.80
7218;DHT22;3650;53.580;10.094;2023-04-24T11:08:12;15.20;43.90
7218;DHT22;3650;53.580;10.094;2023-04-24T11:10:44;15.20;43.90
7218;DHT22;3650;53.580;10.094;2023-04-24T11:13:16;15.30;43.30
7218;DHT22;3650;53.580;10.094;2023-04-24T11:15:43;15.30;43.50
7218;DHT22;3650;53.580;10.094;2023-04-24T11:18:13;15.30;42.10
7218;DHT22;3650;53.580;10.094;2023-04-24T11:20:42;15.30;42.10
7218;DHT22;3650;53.580;10.094;2023-04-24T11:23:12;15.40;41.10
7218;DHT22;3650;53.580;10.094;2023-04-24T11:25:41;15.40;41.10
7218;DHT22;3650;53.580;10.094;2023-04-24T11:28:15;15.40;41.10
7218;DHT22;3650;53.580;10.094;2023-04-24T11:30:43;15.50;41.20
7218;DHT22;3650;53.580;10.094;2023-04-24T11:33:10;15.50;40.90
7218;DHT22;3650;53.580;10.094;2023-04-24T11:35:40;15.50;41.20
7218;DHT22;3650;53.580;10.094;2023-04-24T11:38:07;15.50;40.80
7218;DHT22;3650;53.580;10.094;2023-04-24T11:40:34;15.50;39.50
7218;DHT22;3650;53.580;10.094;2023-04-24T11:43:02;15.50;39.30
7218;DHT22;3650;53.580;10.094;2023-04-24T11:45:32;15.60;39.10
7218;DHT22;3650;53.580;10.094;2023-04-24T11:47:59;15.50;38.10
7218;DHT22;3650;53.580;10.094;2023-04-24T11:50:27;15.60;38.40
7218;DHT22;3650;53.580;10.094;2023-04-24T11:52:55;15.60;38.10
7218;DHT22;3650;53.580;10.094;2023-04-24T11:55:27;15.60;38.50
7218;DHT22;3650;53.580;10.094;2023-04-24T11:57:55;15.60;38.60
7218;DHT22;3650;53.580;10.094;2023-04-24T12:00:24;15.60;38.50
7218;DHT22;3650;53.580;10.094;2023-04-24T12:03:04;15.70;38.00
7218;DHT22;3650;53.580;10.094;2023-04-24T12:05:31;15.70;38.00
7218;DHT22;3650;53.580;10.094;2023-04-24T12:07:59;15.70;38.10
7218;DHT22;3650;53.580;10.094;2023-04-24T12:10:28;15.70;38.40
7218;DHT22;3650;53.580;10.094;2023-04-24T12:12:56;15.70;37.50
7218;DHT22;3650;53.580;10.094;2023-04-24T12:15:23;15.70;37.20
7218;DHT22;3650;53.580;10.094;2023-04-24T12:17:52;15.80;37.80
7218;DHT22;3650;53.580;10.094;2023-04-24T12:20:24;15.80;37.50
7218;DHT22;3650;53.580;10.094;2023-04-24T12:22:52;15.80;37.50
7218;DHT22;3650;53.580;10.094;2023-04-24T12:25:21;15.80;36.50
7218;DHT22;3650;53.580;10.094;2023-04-24T12:27:53;15.90;36.60
7218;DHT22;3650;53.580;10.094;2023-04-24T12:30:20;15.90;36.20
7218;DHT22;3650;53.580;10.094;2023-04-24T12:32:48;16.00;36.00
7218;DHT22;3650;53.580;10.094;2023-04-24T12:35:21;15.90;34.90
7218;DHT22;3650;53.580;10.094;2023-04-24T12:37:48;15.90;34.60
7218;DHT22;3650;53.580;10.094;2023-04-24T12:40:16;15.90;34.60
7218;DHT22;3650;53.580;10.094;2023-04-24T12:42:45;15.90;34.80
7218;DHT22;3650;53.580;10.094;2023-04-24T12:45:12;15.90;34.90
7218;DHT22;3650;53.580;10.094;2023-04-24T12:47:40;15.90;35.40
7218;DHT22;3650;53.580;10.094;2023-04-24T12:50:08;15.90;35.30
7218;DHT22;3650;53.580;10.094;2023-04-24T12:52:37;15.90;35.30
7218;DHT22;3650;53.580;10.094;2023-04-24T12:55:05;15.80;35.40
7218;DHT22;3650;53.580;10.094;2023-04-24T12:57:34;15.80;35.60
7218;DHT22;3650;53.580;10.094;2023-04-24T13:00:02;15.80;36.00
7218;DHT22;3650;53.580;10.094;2023-04-24T13:02:30;15.80;36.10
7218;DHT22;3650;53.580;10.094;2023-04-24T13:04:58;15.70;36.20
7218;DHT22;3650;53.580;10.094;2023-04-24T13:07:25;15.70;36.20
7218;DHT22;3650;53.580;10.094;2023-04-24T13:09:55;15.70;36.60
7218;DHT22;3650;53.580;10.094;2023-04-24T13:12:22;15.70;36.40
7218;DHT22;3650;53.580;10.094;2023-04-24T13:14:50;15.60;36.20
7218;DHT22;3650;53.580;10.094;2023-04-24T13:17:17;15.60;37.70
7218;DHT22;3650;53.580;10.094;2023-04-24T13:19:44;15.60;39.10
7218;DHT22;3650;53.580;10.094;2023-04-24T13:22:12;15.50;39.60
7218;DHT22;3650;53.580;10.094;2023-04-24T13:24:40;15.50;39.60
7218;DHT22;3650;53.580;10.094;2023-04-24T13:27:08;15.50;39.70
7218;DHT22;3650;53.580;10.094;2023-04-24T13:29:35;15.40;39.30
7218;DHT22;3650;53.580;10.094;2023-04-24T13:32:02;15.40;39.80
7218;DHT22;3650;53.580;10.094;2023-04-24T13:34:29;15.40;39.70
7218;DHT22;3650;53.580;10.094;2023-04-24T13:36:57;15.30;39.70
7218;DHT22;3650;53.580;10.094;2023-04-24T13:39:25;15.30;40.10
7218;DHT22;3650;53.580;10.094;2023-04-24T13:41:52;15.30;41.00
7218;DHT22;3650;53.580;10.094;2023-04-24T13:44:21;15.20;40.90
7218;DHT22;3650;53.580;10.094;2023-04-24T13:46:50;15.20;40.90
7218;DHT22;3650;53.580;10.094;2023-04-24T13:49:19;15.20;41.40
7218;DHT22;3650;53.580;10.094;2023-04-24T13:51:47;15.20;41.80
7218;DHT22;3650;53.580;10.094;2023-04-24T13:54:14;15.20;41.60
7218;DHT22;3650;53.580;10.094;2023-04-24T13:56:41;15.20;40.90
7218;DHT22;3650;53.580;10.094;2023-04-24T13:59:08;15.10;40.90
7218;DHT22;3650;53.580;10.094;2023-04-24T14:01:37;15.10;40.90
7218;DHT22;3650;53.580;10.094;2023-04-24T14:04:04;15.10;40.90
7218;DHT22;3650;53.580;10.094;2023-04-24T14:06:31;15.10;40.90
7218;DHT22;3650;53.580;10.094;2023-04-24T14:08:58;15.10;40.90
7218;DHT22;3650;53.580;10.094;2023-04-24T14:11:26;15.10;40.90
7218;DHT22;3650;53.580;10.094;2023-04-24T14:13:54;15.10;40.90
7218;DHT22;3650;53.580;10.094;2023-04-24T14:16:20;15.10;41.90
7218;DHT22;3650;53.580;10.094;2023-04-24T14:18:49;15.10;42.50
7218;DHT22;3650;53.580;10.094;2023-04-24T14:21:15;15.10;43.00
7218;DHT22;3650;53.580;10.094;2023-04-24T14:23:42;15.10;42.80
7218;DHT22;3650;53.580;10.094;2023-04-24T14:26:09;15.10;42.30
7218;DHT22;3650;53.580;10.094;2023-04-24T14:28:36;15.10;41.70
7218;DHT22;3650;53.580;10.094;2023-04-24T14:31:03;15.00;41.70
7218;DHT22;3650;53.580;10.094;2023-04-24T14:33:30;15.00;42.00
7218;DHT22;3650;53.580;10.094;2023-04-24T14:35:58;15.00;42.20
7218;DHT22;3650;53.580;10.094;2023-04-24T14:38:25;15.00;42.10
7218;DHT22;3650;53.580;10.094;2023-04-24T14:40:52;15.00;42.10
7218;DHT22;3650;53.580;10.094;2023-04-24T14:43:18;15.00;43.00
7218;DHT22;3650;53.580;10.094;2023-04-24T14:45:45;15.00;43.30
7218;DHT22;3650;53.580;10.094;2023-04-24T14:48:12;15.00;42.40
7218;DHT22;3650;53.580;10.094;2023-04-24T14:50:39;15.00;41.60
7218;DHT22;3650;53.580;10.094;2023-04-24T14:53:07;15.00;41.30
7218;DHT22;3650;53.580;10.094;2023-04-24T14:55:34;15.00;41.40
7218;DHT22;3650;53.580;10.094;2023-04-24T14:58:02;15.00;42.40
7218;DHT22;3650;53.580;10.094;2023-04-24T15:00:29;15.00;44.70
7218;DHT22;3650;53.580;10.094;2023-04-24T15:02:56;14.90;47.60
7218;DHT22;3650;53.580;10.094;2023-04-24T15:05:22;14.90;49.40
7218;DHT22;3650;53.580;10.094;2023-04-24T15:07:50;14.90;50.10
7218;DHT22;3650;53.580;10.094;2023-04-24T15:10:18;14.90;51.50
7218;DHT22;3650;53.580;10.094;2023-04-24T15:12:48;14.80;51.70
7218;DHT22;3650;53.580;10.094;2023-04-24T15:15:15;14.70;52.50
7218;DHT22;3650;53.580;10.094;2023-04-24T15:17:41;14.70;53.50
7218;DHT22;3650;53.580;10.094;2023-04-24T15:20:09;14.60;54.60
7218;DHT22;3650;53.580;10.094;2023-04-24T15:22:36;14.60;56.00
7218;DHT22;3650;53.580;10.094;2023-04-24T15:25:03;14.50;56.40
7218;DHT22;3650;53.580;10.094;2023-04-24T15:27:41;14.40;55.70
7218;DHT22;3650;53.580;10.094;2023-04-24T15:30:09;14.40;56.70
7218;DHT22;3650;53.580;10.094;2023-04-24T15:32:36;14.30;57.70
7218;DHT22;3650;53.580;10.094;2023-04-24T15:35:03;14.20;59.20
7218;DHT22;3650;53.580;10.094;2023-04-24T15:37:30;14.20;60.50
7218;DHT22;3650;53.580;10.094;2023-04-24T15:39:57;14.10;60.00
7218;DHT22;3650;53.580;10.094;2023-04-24T15:42:25;14.00;60.90
7218;DHT22;3650;53.580;10.094;2023-04-24T15:44:53;13.90;61.20
7218;DHT22;3650;53.580;10.094;2023-04-24T15:47:20;13.80;62.50
7218;DHT22;3650;53.580;10.094;2023-04-24T15:49:47;13.70;63.60
7218;DHT22;3650;53.580;10.094;2023-04-24T15:52:13;13.60;63.00